createdAt,value
2022-10-25T08:34:22.191Z,3.23
2022-10-25T10:02:07.379Z,2.67
2022-10-25T10:04:37.801Z,4.70
2022-10-25T10:07:13.237Z,3.70
2022-10-25T10:09:46.193Z,2.33
2022-10-25T10:12:21.440Z,4.50
2022-10-25T10:14:57.247Z,2.70
2022-10-25T10:17:30.099Z,5.70
2022-10-25T10:20:09.977Z,3.50
2022-10-25T10:22:39.473Z,2.20
2022-10-25T10:25:15.327Z,3.10
2022-10-25T10:27:43.128Z,1.77
2022-10-25T10:30:25.912Z,4.90
2022-10-25T10:32:57.835Z,16.93
2022-10-25T10:35:34.358Z,1.73
2022-10-25T10:38:24.685Z,2.73
2022-10-25T10:40:54.518Z,1.90
2022-10-25T10:43:30.198Z,1.93
2022-10-25T10:46:04.647Z,2.00
2022-10-25T10:48:41.916Z,6.47
2022-10-25T10:51:31.881Z,5.80
2022-10-25T10:54:12.776Z,2.60
2022-10-25T10:56:40.843Z,2.63
2022-10-25T10:59:26.997Z,1.40
2022-10-25T11:01:56.516Z,1.07
2022-10-25T11:04:26.376Z,2.57
2022-10-25T11:06:54.311Z,5.10
2022-10-25T11:09:25.518Z,6.67
2022-10-25T11:12:07.847Z,2.70
2022-10-25T11:14:35.740Z,2.10
2022-10-25T11:17:10.389Z,3.57
2022-10-25T11:19:52.265Z,2.40
2022-10-25T11:22:42.286Z,3.30
2022-10-25T11:25:23.675Z,1.53
2022-10-25T11:28:07.138Z,5.20
2022-10-25T11:30:43.993Z,3.10
2022-10-25T11:33:27.870Z,2.63
2022-10-25T11:36:22.992Z,4.37
2022-10-25T11:39:04.627Z,2.50
2022-10-25T11:41:43.163Z,2.50
2022-10-25T11:44:31.150Z,3.10
2022-10-25T11:47:08.360Z,5.77
2022-10-25T11:49:56.115Z,2.13
2022-10-25T11:52:47.493Z,6.57
2022-10-25T11:55:28.431Z,4.27
2022-10-25T11:58:08.825Z,3.57
2022-10-25T12:00:45.034Z,3.93
2022-10-25T12:03:26.866Z,1.87
2022-10-25T12:06:07.052Z,3.70
2022-10-25T12:08:48.340Z,3.63
2022-10-25T12:11:22.142Z,2.40
2022-10-25T12:13:52.886Z,2.27
2022-10-25T12:16:24.352Z,2.80
2022-10-25T12:19:00.226Z,4.50
2022-10-25T12:21:32.186Z,2.17
2022-10-25T12:24:02.927Z,1.40
2022-10-25T12:26:34.741Z,2.70
2022-10-25T12:29:04.500Z,1.00
2022-10-25T12:31:39.180Z,1.93
2022-10-25T12:34:12.978Z,1.17
2022-10-25T12:37:14.710Z,1.63
2022-10-25T12:39:46.518Z,2.63
2022-10-25T12:42:19.709Z,6.07
2022-10-25T12:45:10.382Z,4.37
2022-10-25T12:47:54.663Z,6.73
2022-10-25T12:50:37.913Z,1.57
2022-10-25T12:53:38.485Z,1.90
2022-10-25T12:56:21.052Z,5.07
2022-10-25T12:59:02.943Z,1.73
2022-10-25T13:01:50.577Z,2.10
2022-10-25T13:05:01.058Z,1.17
2022-10-25T13:07:32.792Z,4.43
2022-10-25T13:10:05.654Z,2.50
2022-10-25T13:12:34.902Z,1.63
2022-10-25T13:15:03.985Z,2.50
2022-10-25T13:18:03.006Z,1.73
2022-10-25T13:20:51.290Z,2.13
2022-10-25T13:24:02.702Z,1.30
2022-10-25T13:27:14.683Z,2.30
2022-10-25T13:30:27.374Z,5.90
2022-10-25T13:33:33.315Z,2.50
2022-10-25T13:36:06.507Z,5.63
2022-10-25T13:38:39.618Z,1.47
2022-10-25T13:41:19.521Z,3.77
2022-10-25T13:43:58.412Z,3.77
2022-10-25T13:46:32.778Z,1.90
2022-10-25T13:49:05.613Z,1.20
2022-10-25T13:51:33.858Z,7.63
2022-10-25T13:54:07.128Z,2.30
2022-10-25T13:56:38.081Z,0.90
2022-10-25T13:59:35.966Z,2.53
2022-10-25T14:02:18.540Z,2.70
2022-10-25T14:04:46.538Z,3.13
2022-10-25T14:07:46.875Z,1.30
2022-10-25T14:10:26.999Z,2.37
2022-10-25T14:13:02.742Z,1.90
2022-10-25T14:15:38.737Z,4.37
2022-10-25T14:18:17.969Z,3.03
2022-10-25T14:20:48.406Z,7.00
2022-10-25T14:23:21.821Z,3.33
2022-10-25T14:25:55.809Z,1.80
2022-10-25T14:28:26.903Z,3.17
2022-10-25T14:30:58.506Z,3.33
2022-10-25T14:33:30.187Z,2.20
2022-10-25T14:36:07.689Z,4.10
2022-10-25T14:38:39.132Z,1.30
2022-10-25T14:41:13.365Z,2.13
2022-10-25T14:43:42.577Z,1.50
2022-10-25T14:46:14.912Z,1.33
2022-10-25T14:48:46.699Z,5.80
2022-10-25T14:51:19.699Z,1.83
2022-10-25T14:53:52.208Z,4.10
2022-10-25T14:56:23.616Z,6.63
2022-10-25T14:58:51.772Z,3.93
2022-10-25T15:01:22.166Z,1.50
2022-10-25T15:03:54.079Z,5.50
2022-10-25T15:06:25.019Z,9.00
2022-10-25T15:09:16.150Z,1.70
2022-10-25T15:12:16.137Z,2.60
2022-10-25T15:14:43.884Z,2.87
2022-10-25T15:17:18.438Z,1.63
2022-10-25T15:20:02.092Z,1.83
2022-10-25T15:22:32.108Z,5.83
2022-10-25T15:24:59.898Z,2.90
2022-10-25T15:27:35.117Z,2.63
2022-10-25T15:30:04.697Z,1.97
2022-10-25T15:32:34.150Z,2.13
2022-10-25T15:35:03.681Z,3.20
2022-10-25T15:37:31.648Z,4.53
2022-10-25T15:39:59.463Z,1.70
2022-10-25T15:42:27.803Z,3.83
2022-10-25T15:44:55.484Z,3.00
2022-10-25T15:47:32.047Z,3.03
2022-10-25T15:50:00.615Z,2.17
2022-10-25T15:52:29.830Z,1.70
2022-10-25T15:54:57.551Z,1.60
2022-10-25T15:57:27.174Z,3.87
2022-10-25T15:59:54.871Z,4.60
2022-10-25T16:02:28.298Z,2.10
2022-10-25T16:04:55.980Z,6.60
2022-10-25T16:07:24.861Z,2.20
2022-10-25T16:09:53.937Z,2.67
2022-10-25T16:12:24.330Z,1.87
2022-10-25T16:14:53.219Z,4.03
2022-10-25T16:17:20.966Z,4.20
2022-10-25T16:19:48.688Z,3.97
2022-10-25T16:22:16.383Z,2.03
2022-10-25T16:24:44.214Z,4.40
2022-10-25T16:27:14.259Z,1.67
2022-10-25T16:29:42.298Z,1.80
2022-10-25T16:32:10.049Z,8.43
2022-10-25T16:34:37.773Z,5.80
2022-10-25T16:37:07.835Z,8.73
2022-10-25T16:39:39.449Z,4.60
2022-10-25T16:42:29.350Z,10.20
2022-10-25T16:44:57.079Z,5.67
2022-10-25T16:47:25.108Z,3.93
2022-10-25T16:49:55.007Z,3.60
2022-10-25T16:52:23.044Z,4.30
2022-10-25T16:54:50.697Z,4.53
2022-10-25T16:57:18.387Z,2.70
2022-10-25T16:59:47.440Z,9.80
2022-10-25T17:02:20.073Z,5.23
2022-10-25T17:04:48.606Z,3.30
2022-10-25T17:07:16.365Z,4.40
2022-10-25T17:09:44.489Z,2.97
2022-10-25T17:12:12.842Z,4.80
2022-10-25T17:14:40.520Z,4.17
2022-10-25T17:17:09.652Z,6.03
2022-10-25T17:19:37.499Z,5.13
2022-10-25T17:22:05.232Z,4.70
2022-10-25T17:24:35.920Z,4.17
2022-10-25T17:29:32.902Z,7.13
2022-10-25T17:32:01.646Z,7.93
2022-10-25T17:34:32.062Z,7.40
2022-10-25T17:37:00.205Z,8.10
2022-10-25T17:39:28.202Z,4.50
2022-10-25T17:41:55.975Z,7.10
2022-10-25T17:44:23.719Z,10.33
2022-10-25T17:46:52.041Z,5.03
2022-10-25T17:49:19.787Z,6.40
2022-10-25T17:51:48.922Z,4.23
2022-10-25T17:54:16.885Z,4.90
2022-10-25T17:56:44.570Z,14.03
2022-10-25T17:59:12.260Z,6.83
2022-10-25T18:01:40.432Z,7.77
2022-10-25T18:04:08.194Z,7.80
2022-10-25T18:06:35.870Z,5.73
2022-10-25T18:09:05.272Z,5.87
2022-10-25T18:11:33.959Z,10.97
2022-10-25T18:14:02.575Z,5.67
2022-10-25T18:16:31.936Z,7.70
2022-10-25T18:19:01.568Z,7.13
2022-10-25T18:21:29.724Z,9.50
2022-10-25T18:23:58.122Z,8.30
2022-10-25T18:26:28.240Z,9.60
2022-10-25T18:28:57.643Z,12.00
2022-10-25T18:31:27.001Z,6.30
2022-10-25T18:33:56.618Z,6.70
2022-10-25T18:36:24.602Z,11.47
2022-10-25T18:38:52.770Z,6.27
2022-10-25T18:41:23.724Z,8.10
2022-10-25T18:43:54.754Z,8.87
2022-10-25T18:46:22.644Z,7.90
2022-10-25T18:48:51.501Z,8.77
2022-10-25T18:51:21.073Z,14.53
2022-10-25T18:53:48.890Z,8.90
2022-10-25T18:56:21.099Z,10.60
2022-10-25T18:58:50.390Z,11.80
2022-10-25T19:01:24.268Z,10.90
2022-10-25T19:03:52.983Z,17.80
2022-10-25T19:06:20.917Z,8.23
2022-10-25T19:08:50.182Z,12.70
2022-10-25T19:11:18.006Z,9.00
2022-10-25T19:13:48.916Z,9.73
2022-10-25T19:16:20.509Z,17.60
2022-10-25T19:18:48.251Z,10.93
2022-10-25T19:21:18.310Z,9.90
2022-10-25T19:23:47.012Z,11.20
2022-10-25T19:26:16.770Z,8.40
2022-10-25T19:28:44.500Z,11.70
2022-10-25T19:31:14.605Z,10.60
2022-10-25T19:33:47.150Z,10.63
2022-10-25T19:36:15.513Z,10.43
2022-10-25T19:38:48.261Z,10.93
2022-10-25T19:41:17.802Z,11.13
2022-10-25T19:43:47.063Z,11.20
2022-10-25T19:46:16.771Z,9.70
2022-10-25T19:48:45.890Z,10.87
2022-10-25T19:51:16.256Z,16.00
2022-10-25T19:53:44.754Z,12.33
2022-10-25T19:56:14.060Z,12.80
2022-10-25T19:58:42.285Z,9.50
2022-10-25T20:01:13.533Z,14.70
2022-10-25T20:03:42.109Z,13.90
2022-10-25T20:06:13.652Z,12.20
2022-10-25T20:08:41.435Z,13.03
2022-10-25T20:11:11.654Z,9.50
2022-10-25T20:13:39.461Z,12.60
2022-10-25T20:16:08.589Z,10.47
2022-10-25T20:18:38.305Z,10.93
2022-10-25T20:21:08.816Z,13.63
2022-10-25T20:23:39.766Z,10.20
2022-10-25T20:26:12.613Z,11.27
2022-10-25T20:28:40.544Z,11.43
2022-10-25T20:31:08.440Z,11.03
2022-10-25T20:33:36.168Z,9.20
2022-10-25T20:36:07.378Z,11.37
2022-10-25T20:38:36.210Z,10.03
2022-10-25T20:41:06.469Z,12.30
2022-10-25T20:43:34.760Z,11.10
2022-10-25T20:46:02.874Z,10.40
2022-10-25T20:48:31.121Z,7.77
2022-10-25T20:50:58.807Z,7.70
2022-10-25T20:53:26.515Z,7.90
2022-10-25T20:55:54.656Z,7.87
2022-10-25T20:58:24.127Z,9.37
2022-10-25T21:00:54.885Z,6.83
2022-10-25T21:03:23.052Z,8.40
2022-10-25T21:05:53.556Z,10.07
2022-10-25T21:08:22.856Z,7.90
2022-10-25T21:10:56.390Z,10.73
2022-10-25T21:13:26.992Z,9.20
2022-10-25T21:15:54.812Z,8.93
2022-10-25T21:18:22.706Z,15.47
2022-10-25T21:20:50.621Z,6.50
2022-10-25T21:23:18.331Z,9.07
2022-10-25T21:25:46.132Z,9.13
2022-10-25T21:28:13.878Z,7.63
2022-10-25T21:30:43.647Z,7.13
2022-10-25T21:33:11.289Z,9.33
2022-10-25T21:35:38.925Z,6.83
2022-10-25T21:38:06.615Z,7.70
2022-10-25T21:40:34.293Z,9.90
2022-10-25T21:43:01.959Z,8.97
2022-10-25T21:45:29.623Z,6.87
2022-10-25T21:47:58.647Z,4.97
2022-10-25T21:50:26.347Z,9.30
2022-10-25T21:52:54.097Z,9.20
2022-10-25T21:55:21.773Z,8.33
2022-10-25T21:57:50.575Z,15.67
2022-10-25T22:00:21.758Z,6.50
2022-10-25T22:02:49.451Z,14.53
2022-10-25T22:05:18.572Z,4.90
2022-10-25T22:07:46.546Z,4.10
2022-10-25T22:10:14.674Z,5.83
2022-10-25T22:12:42.322Z,5.20
2022-10-25T22:15:10.577Z,6.33
2022-10-25T22:17:38.249Z,4.43
2022-10-25T22:20:07.111Z,11.60
2022-10-25T22:22:36.322Z,7.43
2022-10-25T22:25:04.202Z,11.67
2022-10-25T22:27:31.854Z,10.30
2022-10-25T22:29:59.547Z,8.67
2022-10-25T22:32:27.281Z,10.93
2022-10-25T22:34:54.979Z,9.07
2022-10-25T22:37:22.650Z,9.13
2022-10-25T22:39:51.675Z,6.50
2022-10-25T22:42:19.309Z,5.90
2022-10-25T22:44:46.927Z,5.57
2022-10-25T22:47:14.611Z,5.73
2022-10-25T22:49:42.273Z,6.10
2022-10-25T22:52:11.382Z,9.57
2022-10-25T22:54:39.071Z,10.17
2022-10-25T22:57:08.078Z,8.80
2022-10-25T22:59:35.796Z,15.27
2022-10-25T23:02:03.509Z,10.93
2022-10-25T23:04:31.274Z,11.77
2022-10-25T23:06:59.600Z,9.57
2022-10-25T23:09:31.431Z,8.43
2022-10-25T23:11:59.066Z,12.83
2022-10-25T23:14:28.062Z,4.90
2022-10-25T23:16:56.128Z,11.50
2022-10-25T23:19:23.800Z,8.63
2022-10-25T23:21:51.484Z,11.03
2022-10-25T23:24:19.275Z,6.23
2022-10-25T23:26:47.162Z,4.00
2022-10-25T23:29:14.889Z,6.27
2022-10-25T23:31:43.936Z,7.50
2022-10-25T23:34:12.300Z,5.37
2022-10-25T23:36:40.018Z,11.10
2022-10-25T23:39:10.827Z,4.53
2022-10-25T23:41:39.113Z,4.50
2022-10-25T23:44:06.890Z,7.80
2022-10-25T23:46:34.585Z,9.53
2022-10-25T23:49:03.626Z,5.80
2022-10-25T23:51:31.318Z,8.23
2022-10-25T23:53:59.013Z,8.00
2022-10-25T23:56:26.907Z,12.23
2022-10-25T23:58:54.647Z,5.10
